createdAt,value
2018-12-03T00:00:01.472Z,986.21
2018-12-03T00:05:01.737Z,986.23
2018-12-03T00:10:02.042Z,986.23
2018-12-03T00:15:01.349Z,986.15
2018-12-03T00:20:01.653Z,986.11
2018-12-03T00:25:01.939Z,986.06
2018-12-03T00:30:02.225Z,986.04
2018-12-03T00:35:01.523Z,986.13
2018-12-03T00:40:01.801Z,986.26
2018-12-03T00:45:02.062Z,986.31
2018-12-03T00:50:01.399Z,986.39
2018-12-03T00:55:01.651Z,986.38
2018-12-03T01:00:01.916Z,986.43
2018-12-03T01:05:02.207Z,986.46
2018-12-03T01:10:01.449Z,986.51
2018-12-03T01:15:01.715Z,986.54
2018-12-03T01:20:01.966Z,986.64
2018-12-03T01:25:02.259Z,986.67
2018-12-03T01:30:01.529Z,986.81
2018-12-03T01:35:01.793Z,986.87
2018-12-03T01:40:02.034Z,987.01
2018-12-03T01:45:01.353Z,987.03
2018-12-03T01:50:01.645Z,986.99
2018-12-03T01:55:01.976Z,986.92
2018-12-03T02:00:02.270Z,986.82
2018-12-03T02:05:01.677Z,986.81
2018-12-03T02:10:02.082Z,986.63
2018-12-03T02:15:01.353Z,986.63
2018-12-03T02:20:01.670Z,986.62
2018-12-03T02:25:01.918Z,986.55
2018-12-03T02:30:02.256Z,986.37
2018-12-03T02:35:01.581Z,986.22
2018-12-03T02:40:01.893Z,986.2
2018-12-03T02:45:02.126Z,986.01
2018-12-03T02:50:01.437Z,986.04
2018-12-03T02:55:01.691Z,985.99
2018-12-03T03:00:01.952Z,986.05
2018-12-03T03:05:02.177Z,986.08
2018-12-03T03:10:01.453Z,986.28
2018-12-03T03:15:01.750Z,986.18
2018-12-03T03:20:01.911Z,986.34
2018-12-03T03:25:02.168Z,986.35
2018-12-03T03:30:01.457Z,986.44
2018-12-03T03:35:01.757Z,986.67
2018-12-03T03:40:01.956Z,986.43
2018-12-03T03:45:02.182Z,986.22
2018-12-03T03:50:01.454Z,986.36
2018-12-03T03:55:01.714Z,986.15
2018-12-03T04:00:01.993Z,986.05
2018-12-03T04:05:01.279Z,986.14
2018-12-03T04:10:01.573Z,986.33
2018-12-03T04:15:01.875Z,986.28
2018-12-03T04:20:02.167Z,986.28
2018-12-03T04:25:01.421Z,986.37
2018-12-03T04:30:01.706Z,986.37
2018-12-03T04:35:01.975Z,986.24
2018-12-03T04:40:02.335Z,986.49
2018-12-03T04:45:01.617Z,986.43
2018-12-03T04:50:01.862Z,986.8
2018-12-03T04:55:02.087Z,986.72
2018-12-03T05:00:01.353Z,986.72
2018-12-03T05:05:01.597Z,986.72
2018-12-03T05:10:01.862Z,986.74
2018-12-03T05:15:02.135Z,986.63
2018-12-03T05:20:01.424Z,986.59
2018-12-03T05:25:01.657Z,986.66
2018-12-03T05:30:01.882Z,986.75
2018-12-03T05:35:02.212Z,986.82
2018-12-03T05:40:01.684Z,986.77
2018-12-03T05:45:01.906Z,986.74
2018-12-03T05:50:02.139Z,986.67
2018-12-03T05:55:01.427Z,986.69
2018-12-03T06:00:01.706Z,986.75
2018-12-03T06:05:01.968Z,986.85
2018-12-03T06:10:02.218Z,986.75
2018-12-03T06:15:01.475Z,986.82
2018-12-03T06:20:01.756Z,986.96
2018-12-03T06:25:01.994Z,986.83
2018-12-03T06:30:01.225Z,986.72
2018-12-03T06:35:01.488Z,986.73
2018-12-03T06:40:01.750Z,986.81
2018-12-03T06:45:01.998Z,986.91
2018-12-03T06:50:01.269Z,986.88
2018-12-03T06:55:01.528Z,986.82
2018-12-03T07:00:01.799Z,986.87
2018-12-03T07:05:02.055Z,986.92
2018-12-03T07:10:01.341Z,987.05
2018-12-03T07:15:01.632Z,987.01
2018-12-03T07:20:01.874Z,987
2018-12-03T07:25:02.091Z,986.97
2018-12-03T07:30:01.355Z,987.05
2018-12-03T07:35:01.639Z,987.11
2018-12-03T07:40:01.884Z,987.13
2018-12-03T07:45:02.117Z,987.22
2018-12-03T07:50:01.386Z,987.2
2018-12-03T07:55:01.654Z,987.26
2018-12-03T08:00:01.901Z,987.25
2018-12-03T08:05:03.758Z,987.13
2018-12-03T08:10:01.984Z,987.16
2018-12-03T08:15:02.289Z,987.21
2018-12-03T08:20:01.597Z,987.32
2018-12-03T08:25:01.892Z,987.41
2018-12-03T08:30:02.111Z,987.47
2018-12-03T08:35:01.372Z,987.41
2018-12-03T08:40:01.642Z,987.26
2018-12-03T08:45:01.899Z,987.33
2018-12-03T08:50:02.156Z,987.3
2018-12-03T08:55:01.398Z,987.33
2018-12-03T09:00:01.658Z,987.45
2018-12-03T09:05:01.948Z,987.54
2018-12-03T09:10:02.224Z,987.49
2018-12-03T09:15:01.510Z,987.54
2018-12-03T09:20:01.761Z,987.66
2018-12-03T09:25:01.998Z,987.61
2018-12-03T09:30:01.236Z,987.58
2018-12-03T09:35:01.493Z,987.57
2018-12-03T09:40:01.728Z,987.62
2018-12-03T09:45:01.977Z,987.67
2018-12-03T09:50:02.212Z,987.66
2018-12-03T09:55:01.476Z,987.55
2018-12-03T10:00:01.720Z,987.58
2018-12-03T10:05:02.013Z,987.63
2018-12-03T10:10:01.355Z,987.49
2018-12-03T10:15:01.674Z,987.47
2018-12-03T10:20:01.931Z,987.37
2018-12-03T10:25:02.268Z,987.39
2018-12-03T10:30:01.501Z,987.37
2018-12-03T10:35:01.757Z,987.35
2018-12-03T10:40:01.987Z,987.17
2018-12-03T10:45:02.214Z,987.06
2018-12-03T10:50:01.593Z,987.03
2018-12-03T10:55:01.872Z,987.09
2018-12-03T11:00:02.131Z,987.14
2018-12-03T11:05:01.430Z,987.02
2018-12-03T11:10:01.721Z,987.06
2018-12-03T11:15:01.964Z,986.92
2018-12-03T11:20:02.186Z,986.88
2018-12-03T11:25:01.443Z,986.87
2018-12-03T11:30:01.703Z,986.75
2018-12-03T11:35:06.147Z,986.69
2018-12-03T11:40:01.429Z,986.66
2018-12-03T11:45:01.715Z,986.49
2018-12-03T11:50:01.977Z,986.4
2018-12-03T11:55:02.220Z,986.38
2018-12-03T12:00:01.450Z,986.35
2018-12-03T12:05:01.738Z,986.27
2018-12-03T12:10:01.978Z,986.28
2018-12-03T12:15:02.221Z,986.19
2018-12-03T12:20:01.482Z,986.19
2018-12-03T12:25:01.722Z,986.24
2018-12-03T12:30:01.965Z,986.21
2018-12-03T12:35:02.218Z,986.11
2018-12-03T12:40:01.483Z,985.97
2018-12-03T12:45:01.749Z,985.95
2018-12-03T12:50:01.975Z,985.97
2018-12-03T12:55:02.215Z,986.05
2018-12-03T13:00:01.523Z,985.88
2018-12-03T13:05:01.766Z,985.96
2018-12-03T13:10:02.007Z,986.05
2018-12-03T13:15:01.280Z,985.82
2018-12-03T13:20:01.595Z,985.8
2018-12-03T13:25:01.838Z,985.7
2018-12-03T13:30:02.121Z,985.82
2018-12-03T13:35:01.400Z,985.81
2018-12-03T13:40:01.656Z,985.67
2018-12-03T13:45:01.876Z,985.87
2018-12-03T13:50:02.122Z,985.81
2018-12-03T13:55:01.385Z,985.53
2018-12-03T14:00:01.656Z,985.47
2018-12-03T14:05:01.918Z,985.41
2018-12-03T14:10:02.158Z,985.46
2018-12-03T14:15:01.459Z,985.34
2018-12-03T14:20:01.899Z,985.44
2018-12-03T14:25:02.144Z,985.37
2018-12-03T14:30:01.421Z,985.31
2018-12-03T14:35:01.747Z,985.28
2018-12-03T14:40:01.970Z,985.26
2018-12-03T14:45:02.216Z,985.17
2018-12-03T14:50:01.534Z,985.22
2018-12-03T14:55:01.315Z,985.36
2018-12-03T15:00:01.814Z,985.28
2018-12-03T15:05:02.068Z,985.48
2018-12-03T15:10:01.348Z,985.41
2018-12-03T15:15:01.588Z,985.5
2018-12-03T15:20:01.895Z,985.5
2018-12-03T15:25:02.113Z,985.43
2018-12-03T15:30:01.362Z,985.38
2018-12-03T15:35:01.615Z,985.3
2018-12-03T15:40:01.903Z,985.42
2018-12-03T15:45:02.113Z,985.5
2018-12-03T15:50:01.423Z,985.41
2018-12-03T15:55:03.032Z,985.28
2018-12-03T16:00:01.381Z,985.17
2018-12-03T16:05:01.651Z,985.32
2018-12-03T16:10:01.910Z,985.31
2018-12-03T16:15:02.217Z,985.31
2018-12-03T16:20:01.478Z,985.3
2018-12-03T16:25:02.197Z,985.27
2018-12-03T16:30:01.774Z,985.29
2018-12-03T16:35:02.049Z,985.49
2018-12-03T16:40:01.334Z,985.58
2018-12-03T16:45:01.585Z,985.68
2018-12-03T16:50:01.832Z,985.71
2018-12-03T16:55:02.064Z,985.75
2018-12-03T17:00:01.313Z,985.65
2018-12-03T17:05:01.574Z,985.71
2018-12-03T17:10:01.842Z,985.6
2018-12-03T17:15:02.064Z,985.59
2018-12-03T17:20:01.344Z,985.62
2018-12-03T17:25:01.601Z,985.57
2018-12-03T17:30:01.894Z,985.69
2018-12-03T17:35:02.124Z,985.71
2018-12-03T17:40:01.409Z,985.63
2018-12-03T17:45:01.630Z,985.67
2018-12-03T17:50:01.934Z,985.68
2018-12-03T17:55:02.178Z,985.71
2018-12-03T18:00:01.451Z,985.63
2018-12-03T18:05:01.747Z,985.67
2018-12-03T18:10:01.982Z,985.84
2018-12-03T18:15:02.217Z,985.7
2018-12-03T18:20:01.498Z,985.64
2018-12-03T18:25:01.724Z,985.75
2018-12-03T18:30:01.974Z,985.97
2018-12-03T18:35:02.198Z,986.09
2018-12-03T18:40:01.519Z,986.1
2018-12-03T18:45:01.767Z,986.14
2018-12-03T18:50:02.013Z,986.19
2018-12-03T18:55:01.240Z,986.21
2018-12-03T19:00:01.562Z,986.3
2018-12-03T19:05:01.856Z,986.31
2018-12-03T19:10:02.080Z,986.26
2018-12-03T19:15:01.328Z,986.44
2018-12-03T19:20:01.594Z,986.42
2018-12-03T19:25:01.832Z,986.45
2018-12-03T19:30:02.055Z,986.5
2018-12-03T19:35:01.345Z,986.69
2018-12-03T19:40:01.604Z,986.7
2018-12-03T19:45:01.922Z,986.7
2018-12-03T19:50:02.179Z,986.77
2018-12-03T19:55:01.447Z,986.75
2018-12-03T20:00:01.784Z,986.88
2018-12-03T20:05:02.030Z,986.88
2018-12-03T20:10:01.295Z,986.93
2018-12-03T20:15:01.549Z,986.95
2018-12-03T20:20:01.841Z,987.13
2018-12-03T20:25:02.064Z,987.24
2018-12-03T20:30:01.348Z,987.33
2018-12-03T20:35:01.660Z,987.46
2018-12-03T20:40:01.920Z,987.5
2018-12-03T20:45:02.153Z,987.57
2018-12-03T20:50:01.414Z,987.73
2018-12-03T20:55:01.700Z,987.82
2018-12-03T21:00:01.960Z,987.92
2018-12-03T21:05:02.194Z,987.96
2018-12-03T21:10:01.466Z,987.94
2018-12-03T21:15:01.943Z,988.11
2018-12-03T21:20:02.234Z,988.18
2018-12-03T21:25:01.468Z,988.27
2018-12-03T21:30:01.731Z,988.39
2018-12-03T21:35:01.971Z,988.44
2018-12-03T21:40:02.229Z,988.58
2018-12-03T21:45:01.570Z,988.7
2018-12-03T21:50:07.454Z,988.74
2018-12-03T21:55:01.747Z,988.82
2018-12-03T22:00:02.006Z,988.9
2018-12-03T22:05:01.320Z,988.98
2018-12-03T22:10:01.576Z,988.85
2018-12-03T22:15:01.846Z,988.91
2018-12-03T22:20:02.103Z,988.91
2018-12-03T22:25:01.328Z,989.13
2018-12-03T22:30:01.573Z,989.32
2018-12-03T22:35:01.863Z,989.42
2018-12-03T22:40:02.321Z,989.62
2018-12-03T22:45:01.575Z,989.6
2018-12-03T22:50:01.818Z,989.5
2018-12-03T22:55:02.043Z,989.65
2018-12-03T23:00:01.333Z,989.71
2018-12-03T23:05:01.649Z,989.93
2018-12-03T23:10:01.907Z,990.02
2018-12-03T23:15:02.151Z,989.98
2018-12-03T23:20:01.424Z,990.2
2018-12-03T23:25:01.639Z,990.28
2018-12-03T23:30:01.902Z,990.51
2018-12-03T23:35:02.152Z,990.5
2018-12-03T23:40:01.411Z,990.67
2018-12-03T23:45:01.697Z,990.81
2018-12-03T23:50:02.020Z,990.93
2018-12-03T23:55:01.294Z,991
